logo
Search for airport 
image banner adimage banner adimage banner ad
image banner ad

EDTM - Mengen-Hohentengen

Located in Mengen, Germany

ICAO - EDTM, IATA -

Data provided by Airmate  

General information

Coordinates: N48°3'14" E9°22'22"
Elevation is 1821 feet MSL.
Magnetic variation is 2.5000° East
Rated:
View ratings:
[VIEW]
View others Airports in Baden-Württemberg

Operational data

Special qualification required
Current time UTC:
Current local time:
Weather at : EDNY - Friedrichshafen ( 44 km )
METAR: EDNY 161950Z 25005KT 230V290 9999 BKN054 21/14 Q1019
TAF: TAF EDNY 161700Z 1618/1703 26007KT 9999 SCT040 BECMG 1618/1620 VRB02KT
View NOTAMs / SUP AIP / TFR affecting this airport [VIEW]
Communications frequencies: [VIEW]

Runways:

RWY identifierQFULength (ft)Width (ft)SurfaceLDA (ft)
0777°513898ASPH4154
25257°513898ASPH5138
07G77°229798GRASS
25G257°229798GRASS

Airport contact information

Address: Mengen Germany

Fuel provider

TotalEnergies

TotalEnergies

Other aviation service providers

Aviation club (not for profit)

Fliegergruppe Mengen E.V.

Fliegergruppe Mengen E.V.

Luftsportgruppe Ravensburg E.V.

Luftsportgruppe Ravensburg E.V.

Satellite view of EDTM